Time;durP1;ratioP1;P1;durP2;ratioP2;P2;SDS_P1;SDS_P2;PMS_P1;PMS_P2;Temp;Humidity;BMP_temperature;BMP_pressure;BME280_temperature;BME280_humidity;BME280_pressure;Samples;Min_cycle;Max_cycle;Signal;HPM_P1;HPM_P2
2023/10/09 00:00:35;;;;;;;;;;;16.70;99.90;;;;;;5056409;28;19969;-65
2023/10/09 00:03:00;;;;;;;;;;;16.80;99.90;;;;;;5053456;28;20017;-65
2023/10/09 00:05:45;;;;;;;;;;;16.70;99.90;;;;;;5053079;28;19958;-64
2023/10/09 00:08:19;;;;;;;;;;;16.60;99.90;;;;;;5050599;28;19963;-65
2023/10/09 00:10:52;;;;;;;;;;;16.60;99.90;;;;;;5052917;28;20441;-65
2023/10/09 00:13:21;;;;;;;;;;;16.50;99.90;;;;;;5053193;28;20017;-64
2023/10/09 00:15:52;;;;;;;;;;;16.40;99.90;;;;;;5072810;28;20464;-64
2023/10/09 00:18:28;;;;;;;;;;;16.40;99.90;;;;;;5054497;28;19967;-65
2023/10/09 00:21:10;;;;;;;;;;;16.30;99.90;;;;;;5052887;28;19967;-65
2023/10/09 00:23:38;;;;;;;;;;;16.30;99.90;;;;;;5044491;28;19966;-65
2023/10/09 00:26:10;;;;;;;;;;;16.30;99.90;;;;;;5047909;28;20016;-66
2023/10/09 00:28:41;;;;;;;;;;;16.40;99.90;;;;;;5045235;28;19959;-64
2023/10/09 00:31:14;;;;;;;;;;;16.40;99.90;;;;;;5052620;28;19963;-65
2023/10/09 00:33:43;;;;;;;;;;;16.50;99.90;;;;;;5052821;28;20005;-64
2023/10/09 00:36:18;;;;;;;;;;;16.40;99.90;;;;;;5052999;28;19974;-66
2023/10/09 00:38:51;;;;;;;;;;;16.50;99.90;;;;;;5052673;28;19970;-64
2023/10/09 00:41:22;;;;;;;;;;;16.50;99.90;;;;;;5044515;28;19970;-64
2023/10/09 00:43:50;;;;;;;;;;;16.40;99.90;;;;;;5066125;28;19962;-64
2023/10/09 00:46:24;;;;;;;;;;;16.40;99.90;;;;;;5062448;28;19967;-65
2023/10/09 00:48:55;;;;;;;;;;;16.40;99.90;;;;;;5046509;28;19958;-64
2023/10/09 00:51:26;;;;;;;;;;;16.50;99.90;;;;;;5052099;28;20630;-64
2023/10/09 00:53:57;;;;;;;;;;;16.40;99.90;;;;;;5052945;28;19966;-64
2023/10/09 00:56:38;;;;;;;;;;;16.30;99.90;;;;;;5052038;28;19966;-64
2023/10/09 00:59:14;;;;;;;;;;;16.40;99.90;;;;;;5050948;28;19966;-64
2023/10/09 01:01:55;;;;;;;;;;;16.30;99.90;;;;;;5052216;28;20349;-64
2023/10/09 01:04:25;;;;;;;;;;;16.20;99.90;;;;;;5052045;28;19962;-67
2023/10/09 01:07:08;;;;;;;;;;;16.30;99.90;;;;;;5051897;28;20490;-64
2023/10/09 01:09:37;;;;;;;;;;;16.40;99.90;;;;;;5051686;28;19962;-64
2023/10/09 01:12:05;;;;;;;;;;;16.40;99.90;;;;;;5052984;28;19970;-65
2023/10/09 01:14:36;;;;;;;;;;;16.30;99.90;;;;;;5061364;28;19967;-64
2023/10/09 01:17:10;;;;;;;;;;;16.40;99.90;;;;;;5047440;28;20085;-64
2023/10/09 01:19:38;;;;;;;;;;;16.50;99.90;;;;;;5043547;28;19963;-63
2023/10/09 01:22:13;;;;;;;;;;;16.40;99.90;;;;;;5051841;28;19962;-64
2023/10/09 01:24:43;;;;;;;;;;;16.50;99.90;;;;;;5051850;28;20433;-67
2023/10/09 01:27:14;;;;;;;;;;;16.40;99.90;;;;;;5051499;28;19962;-67
2023/10/09 01:29:44;;;;;;;;;;;16.30;99.90;;;;;;5051761;28;19959;-63
2023/10/09 01:32:16;;;;;;;;;;;16.30;99.90;;;;;;5050315;28;20061;-65
2023/10/09 01:34:48;;;;;;;;;;;16.10;99.90;;;;;;5044222;28;19959;-64
2023/10/09 01:37:18;;;;;;;;;;;16.10;99.90;;;;;;5051178;28;19963;-66
2023/10/09 01:39:50;;;;;;;;;;;16.00;99.90;;;;;;5051516;28;19958;-64
2023/10/09 01:42:27;;;;;;;;;;;15.90;99.90;;;;;;5051497;28;20442;-66
2023/10/09 01:44:58;;;;;;;;;;;15.90;99.90;;;;;;5071342;28;19970;-63
2023/10/09 01:47:31;;;;;;;;;;;15.90;99.90;;;;;;5052839;28;20438;-63
2023/10/09 01:50:04;;;;;;;;;;;15.80;99.90;;;;;;5050994;28;19967;-63
2023/10/09 01:52:34;;;;;;;;;;;15.70;99.90;;;;;;5051160;28;19975;-64
2023/10/09 01:55:27;;;;;;;;;;;15.70;99.90;;;;;;5051342;28;19974;-64
2023/10/09 01:57:52;;;;;;;;;;;15.60;99.90;;;;;;5044245;28;19966;-64
2023/10/09 02:00:24;;;;;;;;;;;15.60;99.90;;;;;;5050922;28;19963;-64
2023/10/09 02:02:52;;;;;;;;;;;15.70;99.90;;;;;;5051186;28;19958;-65
2023/10/09 02:05:26;;;;;;;;;;;15.60;99.90;;;;;;5050982;28;19971;-64
2023/10/09 02:07:53;;;;;;;;;;;15.70;99.90;;;;;;5046858;28;19972;-66
2023/10/09 02:10:31;;;;;;;;;;;15.60;99.90;;;;;;5050508;28;20095;-62
2023/10/09 02:13:06;;;;;;;;;;;15.70;99.90;;;;;;5064971;28;20038;-64
2023/10/09 02:15:53;;;;;;;;;;;15.70;99.90;;;;;;5068701;28;20005;-63
2023/10/09 02:18:27;;;;;;;;;;;15.80;99.90;;;;;;5050845;28;20451;-63
2023/10/09 02:21:13;;;;;;;;;;;16.00;99.90;;;;;;5050808;28;19966;-64
2023/10/09 02:23:46;;;;;;;;;;;16.00;99.90;;;;;;5050839;28;20400;-64
2023/10/09 02:26:19;;;;;;;;;;;16.10;99.90;;;;;;5042399;28;20384;-65
2023/10/09 02:28:52;;;;;;;;;;;16.30;99.90;;;;;;5043085;28;19967;-64
2023/10/09 02:31:25;;;;;;;;;;;16.30;99.90;;;;;;5050701;28;19962;-67
2023/10/09 02:33:55;;;;;;;;;;;16.40;99.90;;;;;;5050921;28;20453;-64
2023/10/09 02:36:23;;;;;;;;;;;16.50;99.90;;;;;;5050721;28;20661;-64
2023/10/09 02:38:53;;;;;;;;;;;16.40;99.90;;;;;;5050649;28;20445;-64
2023/10/09 02:41:28;;;;;;;;;;;16.50;99.90;;;;;;5045911;28;20053;-70
2023/10/09 02:43:56;;;;;;;;;;;16.60;99.90;;;;;;5070620;28;19965;-67
2023/10/09 02:46:29;;;;;;;;;;;16.60;99.90;;;;;;5053353;28;20045;-64
2023/10/09 02:48:58;;;;;;;;;;;16.60;99.90;;;;;;5044033;28;19966;-64
2023/10/09 02:51:33;;;;;;;;;;;16.60;99.90;;;;;;5050299;28;19963;-66
2023/10/09 02:54:17;;;;;;;;;;;16.40;99.90;;;;;;5050782;28;19962;-65
2023/10/09 02:56:55;;;;;;;;;;;16.50;99.90;;;;;;5050329;28;19965;-64
2023/10/09 02:59:23;;;;;;;;;;;16.40;99.90;;;;;;5048939;28;20062;-69
2023/10/09 03:01:52;;;;;;;;;;;16.40;99.90;;;;;;5042556;28;19959;-65
2023/10/09 03:04:23;;;;;;;;;;;16.50;99.90;;;;;;5050684;28;20001;-64
2023/10/09 03:06:53;;;;;;;;;;;16.50;99.90;;;;;;5042885;28;20471;-64
2023/10/09 03:09:26;;;;;;;;;;;16.40;99.90;;;;;;5050655;28;19966;-63
2023/10/09 03:12:01;;;;;;;;;;;16.40;99.90;;;;;;5042894;28;19959;-64
2023/10/09 03:14:30;;;;;;;;;;;16.40;99.90;;;;;;5058696;28;19962;-64
2023/10/09 03:16:58;;;;;;;;;;;16.30;99.90;;;;;;5045151;28;20089;-65
2023/10/09 03:19:28;;;;;;;;;;;16.30;99.90;;;;;;5050394;28;19963;-64
2023/10/09 03:21:57;;;;;;;;;;;16.40;99.90;;;;;;5052364;28;19959;-65
2023/10/09 03:24:27;;;;;;;;;;;16.40;99.90;;;;;;5053915;28;19985;-70
2023/10/09 03:26:56;;;;;;;;;;;16.40;99.90;;;;;;5053629;28;20009;-64
2023/10/09 03:29:27;;;;;;;;;;;16.40;99.90;;;;;;5054110;28;19967;-65
2023/10/09 03:31:56;;;;;;;;;;;16.40;99.90;;;;;;5045827;28;19959;-65
2023/10/09 03:34:24;;;;;;;;;;;16.40;99.90;;;;;;5050598;28;20461;-66
2023/10/09 03:37:03;;;;;;;;;;;16.40;99.90;;;;;;5053632;28;20012;-66
2023/10/09 03:39:40;;;;;;;;;;;16.40;99.90;;;;;;5053545;28;20460;-64
2023/10/09 03:42:18;;;;;;;;;;;16.30;99.90;;;;;;5059236;28;20351;-67
2023/10/09 03:44:52;;;;;;;;;;;16.40;99.90;;;;;;5062450;28;20728;-67
2023/10/09 03:47:22;;;;;;;;;;;16.30;99.90;;;;;;5053316;28;20049;-65
2023/10/09 03:49:51;;;;;;;;;;;16.40;99.90;;;;;;5059947;28;19973;-65
2023/10/09 03:52:19;;;;;;;;;;;16.20;99.90;;;;;;5077851;22;20449;-73
2023/10/09 03:54:47;;;;;;;;;;;16.20;99.90;;;;;;5072882;28;20065;-72
2023/10/09 03:57:19;;;;;;;;;;;16.20;99.90;;;;;;5073395;28;20005;-73
2023/10/09 03:59:47;;;;;;;;;;;16.20;99.90;;;;;;5073220;28;20500;-76
2023/10/09 04:02:16;;;;;;;;;;;16.20;99.90;;;;;;5066664;28;20649;-71
2023/10/09 04:04:46;;;;;;;;;;;16.30;99.90;;;;;;5061644;28;19963;-74
2023/10/09 04:07:16;;;;;;;;;;;16.30;99.90;;;;;;5054280;28;19966;-73
2023/10/09 04:09:47;;;;;;;;;;;16.40;99.90;;;;;;5054685;28;19967;-74
2023/10/09 04:12:25;;;;;;;;;;;16.50;99.90;;;;;;5058285;28;20062;-74
2023/10/09 04:14:57;;;;;;;;;;;16.30;99.90;;;;;;5069663;28;20332;-73
2023/10/09 04:17:34;;;;;;;;;;;16.00;99.90;;;;;;5054389;28;19963;-74
2023/10/09 04:20:47;;;;;;;;;;;15.80;99.90;;;;;;5053212;28;20453;-74
2023/10/09 04:23:05;;;;;;;;;;;15.70;99.90;;;;;;5052637;28;19963;-74
2023/10/09 04:25:41;;;;;;;;;;;15.80;99.90;;;;;;5058067;28;20016;-74
2023/10/09 04:28:18;;;;;;;;;;;15.70;99.90;;;;;;5053019;28;19967;-74
2023/10/09 04:30:53;;;;;;;;;;;15.90;99.90;;;;;;5052934;28;19963;-74
2023/10/09 04:33:42;;;;;;;;;;;15.80;99.90;;;;;;5052519;28;20482;-73
2023/10/09 04:36:21;;;;;;;;;;;15.90;99.90;;;;;;5057259;28;20004;-72
2023/10/09 04:42:19;;;;;;;;;;;16.00;99.90;;;;;;5106595;27;19954;-75
2023/10/09 04:47:37;;;;;;;;;;;16.00;99.90;;;;;;5076994;28;20437;-67
2023/10/09 04:50:08;;;;;;;;;;;15.90;99.90;;;;;;5075175;28;19978;-65
2023/10/09 04:52:53;;;;;;;;;;;15.80;99.90;;;;;;5080339;28;20504;-66
2023/10/09 04:55:24;;;;;;;;;;;15.70;99.90;;;;;;5081517;28;20396;-66
2023/10/09 04:58:08;;;;;;;;;;;15.60;99.90;;;;;;5076444;28;20835;-65
2023/10/09 05:00:48;;;;;;;;;;;15.50;99.90;;;;;;5079337;28;20448;-65
2023/10/09 05:03:28;;;;;;;;;;;15.30;99.90;;;;;;5082688;28;19987;-66
2023/10/09 05:05:59;;;;;;;;;;;15.10;99.90;;;;;;5078632;28;20009;-64
2023/10/09 05:08:28;;;;;;;;;;;15.00;99.90;;;;;;5076690;28;21266;-67
2023/10/09 05:11:15;;;;;;;;;;;14.90;99.90;;;;;;5080850;28;19966;-65
2023/10/09 05:13:57;;;;;;;;;;;14.80;99.90;;;;;;5080430;28;20593;-65
2023/10/09 05:16:33;;;;;;;;;;;14.70;99.90;;;;;;5075879;28;19966;-67
2023/10/09 05:19:06;;;;;;;;;;;14.60;99.90;;;;;;5078933;28;19963;-67
2023/10/09 05:21:44;;;;;;;;;;;14.50;99.90;;;;;;5075811;28;19931;-66
2023/10/09 05:24:23;;;;;;;;;;;14.40;99.90;;;;;;5080948;28;19939;-66
2023/10/09 05:26:53;;;;;;;;;;;14.30;99.90;;;;;;5079146;28;19943;-66
2023/10/09 05:29:48;;;;;;;;;;;14.10;99.90;;;;;;5075935;28;19932;-66
2023/10/09 05:32:27;;;;;;;;;;;14.00;99.90;;;;;;5079697;28;20311;-66
2023/10/09 05:35:15;;;;;;;;;;;13.90;99.90;;;;;;5075284;28;19932;-65
2023/10/09 05:37:46;;;;;;;;;;;13.80;99.90;;;;;;5074262;28;19939;-66
2023/10/09 05:40:23;;;;;;;;;;;13.80;99.90;;;;;;5083818;28;19981;-66
2023/10/09 05:43:02;;;;;;;;;;;13.80;99.90;;;;;;5077758;28;19976;-66
2023/10/09 05:51:41;;;;;;;;;;;13.80;99.90;;;;;;5075988;28;19966;-67
2023/10/09 05:54:53;;;;;;;;;;;13.80;99.90;;;;;;5063021;28;19969;-67
2023/10/09 06:05:42;;;;;;;;;;;13.90;99.90;;;;;;5055318;28;20326;-66
2023/10/09 06:08:12;;;;;;;;;;;14.00;99.90;;;;;;5066456;28;20024;-67
2023/10/09 06:10:40;;;;;;;;;;;14.00;99.90;;;;;;5072543;28;19970;-66
2023/10/09 06:13:37;;;;;;;;;;;14.10;99.90;;;;;;5066867;28;19976;-66
2023/10/09 06:18:53;;;;;;;;;;;14.30;99.90;;;;;;5062792;28;19970;-67
2023/10/09 06:21:40;;;;;;;;;;;14.30;99.90;;;;;;5065857;28;20020;-66
2023/10/09 06:24:14;;;;;;;;;;;14.40;99.90;;;;;;5068382;28;19962;-68
2023/10/09 06:26:52;;;;;;;;;;;14.40;99.90;;;;;;5070694;28;19977;-66
2023/10/09 06:32:37;;;;;;;;;;;14.60;99.90;;;;;;5076941;28;19955;-66
2023/10/09 06:43:31;;;;;;;;;;;14.80;99.90;;;;;;5079884;28;19966;-66
2023/10/09 06:46:37;;;;;;;;;;;14.90;99.90;;;;;;5074982;28;19963;-65
2023/10/09 06:48:55;;;;;;;;;;;15.00;99.90;;;;;;5047528;28;19967;-65
2023/10/09 06:54:25;;;;;;;;;;;15.00;99.90;;;;;;5056459;28;19963;-65
2023/10/09 07:02:26;;;;;;;;;;;15.00;99.90;;;;;;5048614;28;19963;-66
2023/10/09 07:04:55;;;;;;;;;;;15.10;99.90;;;;;;5057295;28;20006;-66
2023/10/09 07:07:24;;;;;;;;;;;15.00;99.90;;;;;;5062541;28;19963;-66
2023/10/09 07:12:44;;;;;;;;;;;15.00;99.90;;;;;;5070903;28;20314;-66
2023/10/09 07:18:18;;;;;;;;;;;15.00;99.90;;;;;;5049219;28;19962;-66
2023/10/09 07:20:58;;;;;;;;;;;15.10;99.90;;;;;;5047985;28;20340;-66
2023/10/09 07:23:32;;;;;;;;;;;15.00;99.90;;;;;;5047757;28;20326;-65
2023/10/09 07:26:18;;;;;;;;;;;15.00;99.90;;;;;;5062057;28;19969;-66
2023/10/09 07:28:48;;;;;;;;;;;15.00;99.90;;;;;;5058981;28;19962;-66
2023/10/09 07:31:26;;;;;;;;;;;15.10;99.90;;;;;;5071752;28;19963;-66
2023/10/09 07:34:06;;;;;;;;;;;15.10;99.90;;;;;;5069646;28;20418;-66
2023/10/09 07:36:35;;;;;;;;;;;15.10;99.90;;;;;;5067171;28;20042;-67
2023/10/09 07:39:12;;;;;;;;;;;15.10;99.90;;;;;;5066893;28;20018;-66
2023/10/09 07:41:55;;;;;;;;;;;15.00;99.90;;;;;;5067993;28;21759;-66
2023/10/09 07:44:36;;;;;;;;;;;15.10;99.90;;;;;;5081290;28;19962;-66
2023/10/09 07:49:53;;;;;;;;;;;15.00;99.90;;;;;;5061971;28;19970;-66
2023/10/09 07:52:23;;;;;;;;;;;14.90;99.90;;;;;;5054210;28;19970;-66
2023/10/09 07:54:52;;;;;;;;;;;15.00;99.90;;;;;;5061777;28;20374;-65
2023/10/09 07:57:26;;;;;;;;;;;15.00;99.90;;;;;;5065955;28;19967;-66
2023/10/09 08:00:11;;;;;;;;;;;15.00;99.90;;;;;;5055208;28;20430;-66
2023/10/09 08:02:41;;;;;;;;;;;15.00;99.90;;;;;;5060474;28;20403;-67
2023/10/09 08:05:18;;;;;;;;;;;14.90;99.90;;;;;;5054387;28;20488;-66
2023/10/09 08:07:57;;;;;;;;;;;15.00;99.90;;;;;;5061669;28;19967;-67
2023/10/09 08:16:17;;;;;;;;;;;15.30;99.90;;;;;;5071125;28;20020;-66
2023/10/09 08:18:45;;;;;;;;;;;15.30;99.90;;;;;;5061392;28;20380;-67
2023/10/09 08:21:41;;;;;;;;;;;15.40;99.90;;;;;;5064302;28;19970;-67
2023/10/09 08:24:35;;;;;;;;;;;15.40;99.90;;;;;;5056530;28;20468;-66
2023/10/09 08:30:11;;;;;;;;;;;15.50;99.90;;;;;;5064375;28;20379;-66
2023/10/09 08:32:38;;;;;;;;;;;15.50;99.90;;;;;;5054835;28;19963;-66
2023/10/09 08:35:29;;;;;;;;;;;15.40;99.90;;;;;;5060941;28;20020;-66
2023/10/09 08:37:58;;;;;;;;;;;15.40;99.90;;;;;;5052685;28;20088;-68
2023/10/09 08:40:37;;;;;;;;;;;15.30;99.90;;;;;;5052957;28;20095;-66
2023/10/09 08:43:09;;;;;;;;;;;15.40;99.90;;;;;;5068787;28;19967;-66
2023/10/09 08:45:39;;;;;;;;;;;15.30;99.90;;;;;;5081529;28;19978;-66
2023/10/09 08:48:07;;;;;;;;;;;15.30;99.90;;;;;;5052374;28;19973;-67
2023/10/09 08:50:40;;;;;;;;;;;15.40;99.90;;;;;;5057858;28;19963;-66
2023/10/09 08:53:11;;;;;;;;;;;15.50;99.90;;;;;;5052042;28;19967;-66
2023/10/09 08:55:41;;;;;;;;;;;15.50;99.90;;;;;;5057932;28;20016;-67
2023/10/09 08:58:15;;;;;;;;;;;15.70;99.90;;;;;;5070651;28;20335;-68
2023/10/09 09:00:45;;;;;;;;;;;15.80;99.90;;;;;;5059157;28;20318;-66
2023/10/09 09:03:16;;;;;;;;;;;15.80;99.90;;;;;;5053320;28;19967;-67
2023/10/09 09:05:45;;;;;;;;;;;15.90;99.90;;;;;;5066809;28;20381;-66
2023/10/09 09:08:25;;;;;;;;;;;16.00;99.90;;;;;;5052895;28;19989;-67
2023/10/09 09:11:05;;;;;;;;;;;16.00;99.90;;;;;;5060255;28;20356;-67
2023/10/09 09:13:34;;;;;;;;;;;16.00;99.90;;;;;;5084243;28;19974;-67
2023/10/09 09:16:02;;;;;;;;;;;16.10;99.90;;;;;;5074659;28;19993;-67
2023/10/09 09:18:37;;;;;;;;;;;16.20;99.90;;;;;;5052414;28;19963;-67
2023/10/09 09:21:21;;;;;;;;;;;16.30;99.90;;;;;;5059825;28;19966;-67
2023/10/09 09:23:57;;;;;;;;;;;16.40;99.90;;;;;;5063460;28;20468;-67
2023/10/09 09:26:44;;;;;;;;;;;16.50;99.90;;;;;;5060492;28;20316;-67
2023/10/09 09:29:13;;;;;;;;;;;16.60;99.90;;;;;;5059965;28;19971;-67
2023/10/09 09:31:52;;;;;;;;;;;16.60;99.90;;;;;;5060006;28;19971;-67
2023/10/09 09:34:25;;;;;;;;;;;16.70;99.90;;;;;;5060079;28;19975;-67
2023/10/09 09:36:54;;;;;;;;;;;16.80;99.90;;;;;;5062384;28;19967;-67
2023/10/09 09:39:27;;;;;;;;;;;16.80;99.90;;;;;;5060050;28;20006;-67
2023/10/09 09:42:10;;;;;;;;;;;16.80;99.90;;;;;;5059287;28;19966;-67
2023/10/09 09:44:44;;;;;;;;;;;16.90;99.90;;;;;;5083718;28;20332;-67
2023/10/09 09:47:14;;;;;;;;;;;16.90;99.90;;;;;;5056815;28;19974;-68
2023/10/09 09:49:42;;;;;;;;;;;16.90;99.90;;;;;;5063131;28;20057;-67
2023/10/09 09:52:11;;;;;;;;;;;17.00;99.90;;;;;;5061663;28;19970;-67
2023/10/09 09:54:39;;;;;;;;;;;17.10;99.90;;;;;;5054877;28;19970;-67
2023/10/09 09:57:12;;;;;;;;;;;17.20;99.90;;;;;;5062227;28;20069;-67
2023/10/09 09:59:49;;;;;;;;;;;17.20;99.90;;;;;;5057081;28;20448;-67
2023/10/09 10:02:21;;;;;;;;;;;17.20;99.90;;;;;;5059360;28;19970;-67
2023/10/09 10:04:52;;;;;;;;;;;17.30;99.90;;;;;;5050117;28;19981;-67
2023/10/09 10:07:21;;;;;;;;;;;17.30;99.90;;;;;;5061971;28;19974;-67
2023/10/09 10:09:54;;;;;;;;;;;17.40;99.90;;;;;;5056661;28;20341;-67
2023/10/09 10:12:37;;;;;;;;;;;17.40;99.90;;;;;;5068071;28;19963;-67
2023/10/09 10:15:14;;;;;;;;;;;17.50;99.90;;;;;;5086755;28;20003;-67
2023/10/09 10:17:58;;;;;;;;;;;17.60;99.90;;;;;;5056583;28;19963;-67
2023/10/09 10:20:31;;;;;;;;;;;17.60;99.90;;;;;;5050713;28;19963;-67
2023/10/09 10:23:17;;;;;;;;;;;17.70;99.90;;;;;;5051191;28;20008;-67
2023/10/09 10:25:49;;;;;;;;;;;17.70;99.90;;;;;;5057184;28;20395;-67
2023/10/09 10:28:28;;;;;;;;;;;17.80;99.90;;;;;;5052619;28;19967;-66
2023/10/09 10:31:00;;;;;;;;;;;17.80;99.90;;;;;;5058869;28;20028;-67
2023/10/09 10:33:48;;;;;;;;;;;17.90;99.90;;;;;;5059186;28;20331;-68
2023/10/09 10:36:22;;;;;;;;;;;18.00;99.90;;;;;;5051065;28;20020;-67
2023/10/09 10:39:04;;;;;;;;;;;18.10;99.90;;;;;;5051298;28;19963;-67
2023/10/09 10:41:36;;;;;;;;;;;18.10;99.90;;;;;;5053399;28;20315;-67
2023/10/09 10:44:33;;;;;;;;;;;18.10;99.90;;;;;;5087351;28;20377;-67
2023/10/09 10:47:04;;;;;;;;;;;18.20;99.90;;;;;;5067061;28;19998;-67
2023/10/09 10:49:37;;;;;;;;;;;18.40;99.90;;;;;;5070943;28;19974;-68
2023/10/09 10:52:17;;;;;;;;;;;18.40;99.90;;;;;;5054483;28;20033;-67
2023/10/09 10:55:05;;;;;;;;;;;18.50;99.90;;;;;;5050995;28;19967;-67
2023/10/09 10:57:53;;;;;;;;;;;18.60;99.90;;;;;;5050869;28;19967;-67
2023/10/09 11:03:19;;;;;;;;;;;18.90;99.90;;;;;;5053895;28;19973;-67
2023/10/09 11:05:51;;;;;;;;;;;19.00;99.90;;;;;;5058923;28;19962;-67
2023/10/09 11:08:27;;;;;;;;;;;19.20;99.90;;;;;;5058863;28;20456;-67
2023/10/09 11:11:15;;;;;;;;;;;19.50;99.90;;;;;;5051491;28;19967;-67
2023/10/09 11:13:57;;;;;;;;;;;19.80;99.90;;;;;;5076627;28;19970;-68
2023/10/09 11:16:41;;;;;;;;;;;20.40;99.90;;;;;;5069605;28;19973;-67
2023/10/09 11:19:32;;;;;;;;;;;20.70;99.90;;;;;;5063048;28;20057;-67
2023/10/09 11:27:40;;;;;;;;;;;22.00;99.90;;;;;;5119661;28;19972;-66
2023/10/09 11:30:10;;;;;;;;;;;22.40;99.90;;;;;;5129596;28;19976;-66
2023/10/09 11:32:39;;;;;;;;;;;22.30;99.90;;;;;;5117301;27;19966;-66
2023/10/09 11:35:10;;;;;;;;;;;22.50;99.90;;;;;;5109012;27;20020;-66
2023/10/09 11:37:42;;;;;;;;;;;22.60;99.90;;;;;;5109910;27;19966;-66
2023/10/09 11:40:24;;;;;;;;;;;22.50;99.90;;;;;;5108918;27;20191;-66
2023/10/09 11:42:57;;;;;;;;;;;22.40;99.90;;;;;;5108423;27;19991;-68
2023/10/09 11:45:28;;;;;;;;;;;22.30;99.90;;;;;;5108477;27;20077;-65
2023/10/09 11:47:59;;;;;;;;;;;22.30;99.90;;;;;;5108677;27;19973;-66
2023/10/09 11:50:42;;;;;;;;;;;22.20;99.90;;;;;;5108610;27;19966;-66
2023/10/09 11:53:19;;;;;;;;;;;22.10;99.90;;;;;;5109720;27;20436;-67
2023/10/09 11:55:48;;;;;;;;;;;22.10;99.90;;;;;;5108690;27;19971;-67
2023/10/09 11:58:22;;;;;;;;;;;22.00;99.90;;;;;;5108164;27;20064;-67
2023/10/09 12:00:51;;;;;;;;;;;22.20;99.90;;;;;;5108362;27;20449;-67
2023/10/09 12:03:23;;;;;;;;;;;22.40;99.90;;;;;;5108065;27;19970;-67
2023/10/09 12:05:53;;;;;;;;;;;22.40;99.90;;;;;;5108518;27;19973;-67
2023/10/09 12:08:22;;;;;;;;;;;22.40;99.90;;;;;;5108124;27;20441;-67
2023/10/09 12:10:54;;;;;;;;;;;22.30;99.90;;;;;;5114197;27;20337;-67
2023/10/09 12:13:23;;;;;;;;;;;22.30;99.90;;;;;;5107922;27;20460;-66
2023/10/09 12:15:53;;;;;;;;;;;22.30;99.90;;;;;;5108129;27;19977;-67
2023/10/09 12:18:21;;;;;;;;;;;22.30;99.90;;;;;;5107865;27;19970;-67
2023/10/09 12:20:52;;;;;;;;;;;22.30;99.90;;;;;;5107824;27;19966;-67
2023/10/09 12:23:21;;;;;;;;;;;22.40;99.90;;;;;;5099977;27;20013;-67
2023/10/09 12:25:49;;;;;;;;;;;22.40;99.90;;;;;;5100758;28;19973;-67
2023/10/09 12:28:20;;;;;;;;;;;22.40;99.90;;;;;;5105799;28;20017;-67
2023/10/09 12:30:51;;;;;;;;;;;22.40;99.90;;;;;;5107911;28;19973;-68
2023/10/09 12:33:19;;;;;;;;;;;22.30;99.90;;;;;;5107421;28;19973;-67
2023/10/09 12:35:48;;;;;;;;;;;22.30;99.90;;;;;;5096531;28;20013;-68
2023/10/09 12:38:18;;;;;;;;;;;22.30;99.90;;;;;;5094023;28;19973;-66
2023/10/09 12:40:51;;;;;;;;;;;22.20;99.90;;;;;;5073898;28;19967;-67
2023/10/09 12:43:21;;;;;;;;;;;22.20;99.90;;;;;;5076067;28;19969;-66
2023/10/09 12:45:50;;;;;;;;;;;22.30;99.90;;;;;;5073908;28;20006;-67
2023/10/09 12:48:17;;;;;;;;;;;22.40;99.90;;;;;;5073424;28;20020;-67
2023/10/09 12:50:45;;;;;;;;;;;22.40;99.90;;;;;;5073774;28;19974;-66
2023/10/09 12:53:17;;;;;;;;;;;22.40;99.90;;;;;;5073720;28;19970;-67
2023/10/09 12:55:45;;;;;;;;;;;22.50;99.90;;;;;;5073613;28;20340;-67
2023/10/09 12:58:15;;;;;;;;;;;22.60;99.90;;;;;;5092487;28;19966;-67
2023/10/09 13:00:49;;;;;;;;;;;22.60;99.90;;;;;;5074021;28;19974;-67
2023/10/09 13:03:19;;;;;;;;;;;22.60;99.90;;;;;;5074489;28;19970;-67
2023/10/09 13:05:54;;;;;;;;;;;22.60;99.90;;;;;;5073094;28;20009;-66
2023/10/09 13:08:23;;;;;;;;;;;22.70;99.90;;;;;;5073047;28;19966;-67
2023/10/09 13:11:01;;;;;;;;;;;22.70;99.90;;;;;;5086149;28;19966;-67
2023/10/09 13:13:39;;;;;;;;;;;22.80;99.90;;;;;;5074547;28;19966;-68
2023/10/09 13:16:13;;;;;;;;;;;22.70;99.90;;;;;;5073338;28;19971;-67
2023/10/09 13:18:49;;;;;;;;;;;22.70;99.90;;;;;;5072894;28;20025;-67
2023/10/09 13:21:21;;;;;;;;;;;22.80;99.90;;;;;;5073162;28;19976;-67
2023/10/09 13:23:49;;;;;;;;;;;22.70;99.90;;;;;;5073096;28;19973;-67
2023/10/09 13:26:23;;;;;;;;;;;22.70;99.90;;;;;;5073191;28;20405;-67
2023/10/09 13:29:03;;;;;;;;;;;22.70;99.90;;;;;;5076155;28;19968;-67
2023/10/09 13:31:33;;;;;;;;;;;22.80;99.90;;;;;;5091624;28;19966;-67
2023/10/09 13:34:06;;;;;;;;;;;22.70;99.90;;;;;;5073069;28;20020;-67
2023/10/09 13:36:34;;;;;;;;;;;22.70;99.90;;;;;;5072761;28;20016;-67
2023/10/09 13:39:22;;;;;;;;;;;22.60;99.90;;;;;;5072662;28;19973;-67
2023/10/09 13:41:50;;;;;;;;;;;22.60;99.90;;;;;;5072473;28;20440;-68
2023/10/09 13:44:18;;;;;;;;;;;22.50;99.90;;;;;;5088772;28;20060;-67
2023/10/09 13:46:50;;;;;;;;;;;22.50;99.90;;;;;;5081593;28;19970;-67
2023/10/09 13:49:22;;;;;;;;;;;22.50;99.90;;;;;;5072753;28;19931;-67
2023/10/09 13:51:50;;;;;;;;;;;22.50;99.90;;;;;;5072430;28;20389;-67
2023/10/09 13:54:28;;;;;;;;;;;22.60;99.90;;;;;;5075039;28;19981;-67
2023/10/09 13:56:56;;;;;;;;;;;22.60;99.90;;;;;;5072255;28;19977;-67
2023/10/09 13:59:25;;;;;;;;;;;22.50;99.90;;;;;;5072518;28;19925;-67
2023/10/09 14:01:55;;;;;;;;;;;22.40;99.90;;;;;;5079226;28;20015;-68
2023/10/09 14:04:24;;;;;;;;;;;22.40;99.90;;;;;;5092501;28;19928;-67
2023/10/09 14:06:56;;;;;;;;;;;22.20;99.90;;;;;;5072334;28;20360;-67
2023/10/09 14:09:31;;;;;;;;;;;22.20;99.90;;;;;;5072016;28;19974;-67
2023/10/09 14:12:07;;;;;;;;;;;22.10;99.90;;;;;;5071607;28;19932;-67
2023/10/09 14:14:37;;;;;;;;;;;22.10;99.90;;;;;;5080114;28;20390;-67
2023/10/09 14:17:11;;;;;;;;;;;22.10;99.90;;;;;;5072028;28;20399;-67
2023/10/09 14:19:46;;;;;;;;;;;22.10;99.90;;;;;;5082832;28;19978;-68
2023/10/09 14:22:15;;;;;;;;;;;22.00;99.90;;;;;;5092311;28;19935;-67
2023/10/09 14:24:45;;;;;;;;;;;22.00;99.90;;;;;;5072401;28;19924;-67
2023/10/09 14:27:17;;;;;;;;;;;21.90;99.90;;;;;;5071665;28;19925;-68
2023/10/09 14:29:45;;;;;;;;;;;21.90;99.90;;;;;;5071484;28;19924;-68
2023/10/09 14:32:14;;;;;;;;;;;21.90;99.90;;;;;;5071663;28;20402;-67
2023/10/09 14:34:49;;;;;;;;;;;21.80;99.90;;;;;;5071460;28;20007;-67
2023/10/09 14:37:19;;;;;;;;;;;21.90;99.90;;;;;;5082170;28;20456;-68
2023/10/09 14:39:48;;;;;;;;;;;21.90;99.90;;;;;;5091660;28;19928;-67
2023/10/09 14:42:16;;;;;;;;;;;21.90;99.90;;;;;;5083063;28;19971;-67
2023/10/09 14:44:45;;;;;;;;;;;21.90;99.90;;;;;;5071162;28;19928;-67
2023/10/09 14:47:14;;;;;;;;;;;21.90;99.90;;;;;;5071272;28;19963;-68
2023/10/09 14:49:46;;;;;;;;;;;21.90;99.90;;;;;;5071475;28;19972;-67
2023/10/09 14:52:16;;;;;;;;;;;21.90;99.90;;;;;;5071481;28;19929;-67
2023/10/09 14:54:45;;;;;;;;;;;21.80;99.90;;;;;;5072381;28;20011;-67
2023/10/09 14:57:12;;;;;;;;;;;21.80;99.90;;;;;;5070945;28;19932;-68
2023/10/09 14:59:42;;;;;;;;;;;21.80;99.90;;;;;;5071067;28;19924;-67
2023/10/09 15:02:12;;;;;;;;;;;21.80;99.90;;;;;;5071299;28;20394;-67
2023/10/09 15:04:40;;;;;;;;;;;21.80;99.90;;;;;;5071469;28;20408;-67
2023/10/09 15:07:09;;;;;;;;;;;21.80;99.90;;;;;;5070966;28;19948;-67
2023/10/09 15:09:41;;;;;;;;;;;21.80;99.90;;;;;;5074733;28;19928;-67
2023/10/09 15:12:08;;;;;;;;;;;21.80;99.90;;;;;;5081130;28;19954;-67
2023/10/09 15:14:37;;;;;;;;;;;21.80;99.90;;;;;;5070926;28;19924;-68
2023/10/09 15:17:06;;;;;;;;;;;21.90;99.90;;;;;;5070864;28;19934;-67
2023/10/09 15:19:35;;;;;;;;;;;21.80;99.90;;;;;;5088240;28;20018;-67
2023/10/09 15:22:08;;;;;;;;;;;21.90;99.90;;;;;;5091063;28;19973;-67
2023/10/09 15:24:37;;;;;;;;;;;21.90;99.90;;;;;;5090912;28;19932;-67
2023/10/09 15:27:05;;;;;;;;;;;21.90;99.90;;;;;;5089644;28;20326;-68
2023/10/09 15:29:33;;;;;;;;;;;22.00;99.90;;;;;;5070677;28;19924;-67
2023/10/09 15:32:07;;;;;;;;;;;22.00;99.90;;;;;;5074851;28;19925;-67
2023/10/09 15:34:35;;;;;;;;;;;22.00;99.90;;;;;;5090878;28;19924;-67
2023/10/09 15:37:04;;;;;;;;;;;22.00;99.90;;;;;;5091413;28;19930;-67
2023/10/09 15:39:31;;;;;;;;;;;22.00;99.90;;;;;;5091195;28;19963;-68
2023/10/09 15:42:04;;;;;;;;;;;22.10;99.90;;;;;;5070566;28;19925;-67
2023/10/09 15:44:33;;;;;;;;;;;22.10;99.90;;;;;;5070878;28;19924;-67
2023/10/09 15:47:01;;;;;;;;;;;22.10;99.90;;;;;;5087156;28;19947;-67
2023/10/09 15:49:29;;;;;;;;;;;22.00;99.90;;;;;;5071058;28;19968;-67
2023/10/09 15:51:59;;;;;;;;;;;21.90;99.90;;;;;;5070541;28;20357;-67
2023/10/09 15:54:28;;;;;;;;;;;21.80;99.90;;;;;;5065308;22;19925;-70
2023/10/09 15:56:56;;;;;;;;;;;21.70;99.90;;;;;;5029888;28;19933;-71
2023/10/09 15:59:41;;;;;;;;;;;21.70;99.90;;;;;;5030899;28;19933;-69
2023/10/09 16:02:09;;;;;;;;;;;21.70;99.90;;;;;;5034955;28;19991;-70